sensor_id;sensor_type;location;lat;lon;timestamp;P1;durP1;ratioP1;P2;durP2;ratioP2
16173;SDS011;14031;50.158;8.626;2022-09-17T00:02:13;4.00;;;1.73;;
16173;SDS011;14031;50.158;8.626;2022-09-17T00:04:40;1.73;;;1.40;;
16173;SDS011;14031;50.158;8.626;2022-09-17T00:07:07;2.50;;;1.70;;
16173;SDS011;14031;50.158;8.626;2022-09-17T00:09:34;2.77;;;1.80;;
16173;SDS011;14031;50.158;8.626;2022-09-17T00:12:00;2.43;;;1.50;;
16173;SDS011;14031;50.158;8.626;2022-09-17T00:14:29;2.93;;;1.60;;
16173;SDS011;14031;50.158;8.626;2022-09-17T00:16:55;3.07;;;1.67;;
16173;SDS011;14031;50.158;8.626;2022-09-17T00:19:22;3.03;;;1.80;;
16173;SDS011;14031;50.158;8.626;2022-09-17T00:21:49;6.00;;;2.03;;
16173;SDS011;14031;50.158;8.626;2022-09-17T00:24:17;7.93;;;1.50;;
16173;SDS011;14031;50.158;8.626;2022-09-17T00:26:44;3.63;;;1.50;;
16173;SDS011;14031;50.158;8.626;2022-09-17T00:29:12;4.70;;;1.70;;
16173;SDS011;14031;50.158;8.626;2022-09-17T00:31:40;7.03;;;1.57;;
16173;SDS011;14031;50.158;8.626;2022-09-17T00:34:07;3.40;;;1.47;;
16173;SDS011;14031;50.158;8.626;2022-09-17T00:36:34;12.67;;;2.90;;
16173;SDS011;14031;50.158;8.626;2022-09-17T00:39:02;2.07;;;1.10;;
16173;SDS011;14031;50.158;8.626;2022-09-17T00:41:31;6.10;;;1.40;;
16173;SDS011;14031;50.158;8.626;2022-09-17T00:43:59;3.53;;;1.30;;
16173;SDS011;14031;50.158;8.626;2022-09-17T00:46:29;5.63;;;1.40;;
16173;SDS011;14031;50.158;8.626;2022-09-17T00:49:02;5.53;;;1.20;;
16173;SDS011;14031;50.158;8.626;2022-09-17T00:51:32;1.50;;;1.40;;
16173;SDS011;14031;50.158;8.626;2022-09-17T00:54:01;2.57;;;1.40;;
16173;SDS011;14031;50.158;8.626;2022-09-17T00:56:32;1.47;;;1.37;;
16173;SDS011;14031;50.158;8.626;2022-09-17T00:59:00;1.90;;;1.50;;
16173;SDS011;14031;50.158;8.626;2022-09-17T01:01:27;5.93;;;1.70;;
16173;SDS011;14031;50.158;8.626;2022-09-17T01:03:54;6.80;;;1.40;;
16173;SDS011;14031;50.158;8.626;2022-09-17T01:06:24;3.03;;;1.30;;
16173;SDS011;14031;50.158;8.626;2022-09-17T01:09:04;2.43;;;1.57;;
16173;SDS011;14031;50.158;8.626;2022-09-17T01:11:50;3.57;;;1.43;;
16173;SDS011;14031;50.158;8.626;2022-09-17T01:14:42;3.53;;;1.70;;
16173;SDS011;14031;50.158;8.626;2022-09-17T01:17:17;6.67;;;1.47;;
16173;SDS011;14031;50.158;8.626;2022-09-17T01:20:02;3.53;;;1.30;;
16173;SDS011;14031;50.158;8.626;2022-09-17T01:22:56;3.07;;;1.50;;
16173;SDS011;14031;50.158;8.626;2022-09-17T01:25:48;2.90;;;1.60;;
16173;SDS011;14031;50.158;8.626;2022-09-17T01:28:33;5.57;;;1.30;;
16173;SDS011;14031;50.158;8.626;2022-09-17T01:31:23;4.70;;;1.17;;
16173;SDS011;14031;50.158;8.626;2022-09-17T01:33:59;2.43;;;1.30;;
16173;SDS011;14031;50.158;8.626;2022-09-17T01:36:35;2.23;;;1.20;;
16173;SDS011;14031;50.158;8.626;2022-09-17T01:39:15;5.87;;;1.20;;
16173;SDS011;14031;50.158;8.626;2022-09-17T01:41:55;3.47;;;1.20;;
16173;SDS011;14031;50.158;8.626;2022-09-17T01:44:28;1.27;;;0.80;;
16173;SDS011;14031;50.158;8.626;2022-09-17T01:47:02;3.70;;;1.13;;
16173;SDS011;14031;50.158;8.626;2022-09-17T01:49:31;5.77;;;1.43;;
16173;SDS011;14031;50.158;8.626;2022-09-17T01:52:02;3.70;;;1.50;;
16173;SDS011;14031;50.158;8.626;2022-09-17T01:54:30;5.80;;;1.50;;
16173;SDS011;14031;50.158;8.626;2022-09-17T01:57:02;3.10;;;1.70;;
16173;SDS011;14031;50.158;8.626;2022-09-17T01:59:34;2.00;;;1.20;;
16173;SDS011;14031;50.158;8.626;2022-09-17T02:02:09;2.87;;;1.70;;
16173;SDS011;14031;50.158;8.626;2022-09-17T02:04:41;5.03;;;1.27;;
16173;SDS011;14031;50.158;8.626;2022-09-17T02:07:13;2.07;;;1.53;;
16173;SDS011;14031;50.158;8.626;2022-09-17T02:09:45;3.40;;;1.20;;
16173;SDS011;14031;50.158;8.626;2022-09-17T02:12:18;4.13;;;1.80;;
16173;SDS011;14031;50.158;8.626;2022-09-17T02:14:49;3.30;;;1.50;;
16173;SDS011;14031;50.158;8.626;2022-09-17T02:17:21;1.80;;;1.13;;
16173;SDS011;14031;50.158;8.626;2022-09-17T02:19:52;2.80;;;1.60;;
16173;SDS011;14031;50.158;8.626;2022-09-17T02:22:22;4.20;;;1.53;;
16173;SDS011;14031;50.158;8.626;2022-09-17T02:24:55;4.70;;;1.30;;
16173;SDS011;14031;50.158;8.626;2022-09-17T02:27:33;2.37;;;1.20;;
16173;SDS011;14031;50.158;8.626;2022-09-17T02:30:10;2.50;;;1.40;;
16173;SDS011;14031;50.158;8.626;2022-09-17T02:32:41;4.83;;;1.43;;
16173;SDS011;14031;50.158;8.626;2022-09-17T02:35:08;6.07;;;1.40;;
16173;SDS011;14031;50.158;8.626;2022-09-17T02:37:37;6.23;;;1.40;;
16173;SDS011;14031;50.158;8.626;2022-09-17T02:40:05;2.47;;;1.43;;
16173;SDS011;14031;50.158;8.626;2022-09-17T02:42:35;2.43;;;1.13;;
16173;SDS011;14031;50.158;8.626;2022-09-17T02:45:18;8.57;;;1.70;;
16173;SDS011;14031;50.158;8.626;2022-09-17T02:51:12;3.53;;;1.40;;
16173;SDS011;14031;50.158;8.626;2022-09-17T02:53:51;3.10;;;1.33;;
16173;SDS011;14031;50.158;8.626;2022-09-17T02:56:28;4.93;;;1.83;;
16173;SDS011;14031;50.158;8.626;2022-09-17T02:59:07;2.03;;;1.23;;
16173;SDS011;14031;50.158;8.626;2022-09-17T03:01:44;3.00;;;1.30;;
16173;SDS011;14031;50.158;8.626;2022-09-17T03:04:17;2.80;;;1.20;;
16173;SDS011;14031;50.158;8.626;2022-09-17T03:06:47;5.57;;;1.70;;
16173;SDS011;14031;50.158;8.626;2022-09-17T03:09:14;3.67;;;1.47;;
16173;SDS011;14031;50.158;8.626;2022-09-17T03:11:41;3.97;;;1.87;;
16173;SDS011;14031;50.158;8.626;2022-09-17T03:14:08;1.60;;;1.40;;
16173;SDS011;14031;50.158;8.626;2022-09-17T03:16:35;2.40;;;1.50;;
16173;SDS011;14031;50.158;8.626;2022-09-17T03:19:02;5.77;;;1.70;;
16173;SDS011;14031;50.158;8.626;2022-09-17T03:21:30;3.27;;;1.40;;
16173;SDS011;14031;50.158;8.626;2022-09-17T03:23:57;4.97;;;1.53;;
16173;SDS011;14031;50.158;8.626;2022-09-17T03:26:27;1.70;;;1.30;;
16173;SDS011;14031;50.158;8.626;2022-09-17T03:28:54;2.07;;;1.40;;
16173;SDS011;14031;50.158;8.626;2022-09-17T03:31:20;3.27;;;1.40;;
16173;SDS011;14031;50.158;8.626;2022-09-17T03:33:47;3.00;;;1.90;;
16173;SDS011;14031;50.158;8.626;2022-09-17T03:36:14;2.93;;;1.70;;
16173;SDS011;14031;50.158;8.626;2022-09-17T03:38:42;2.50;;;1.37;;
16173;SDS011;14031;50.158;8.626;2022-09-17T03:41:09;2.73;;;1.43;;
16173;SDS011;14031;50.158;8.626;2022-09-17T03:43:35;3.77;;;1.40;;
16173;SDS011;14031;50.158;8.626;2022-09-17T03:46:04;3.17;;;1.40;;
16173;SDS011;14031;50.158;8.626;2022-09-17T03:48:31;3.43;;;1.30;;
16173;SDS011;14031;50.158;8.626;2022-09-17T03:51:01;2.83;;;2.17;;
16173;SDS011;14031;50.158;8.626;2022-09-17T03:53:28;5.23;;;1.50;;
16173;SDS011;14031;50.158;8.626;2022-09-17T03:55:57;1.63;;;1.40;;
16173;SDS011;14031;50.158;8.626;2022-09-17T03:58:25;7.07;;;1.30;;
16173;SDS011;14031;50.158;8.626;2022-09-17T04:00:51;3.10;;;1.30;;
16173;SDS011;14031;50.158;8.626;2022-09-17T04:03:21;4.80;;;1.47;;
16173;SDS011;14031;50.158;8.626;2022-09-17T04:05:48;1.53;;;1.43;;
16173;SDS011;14031;50.158;8.626;2022-09-17T04:08:15;1.97;;;1.50;;
16173;SDS011;14031;50.158;8.626;2022-09-17T04:10:43;5.80;;;1.40;;
16173;SDS011;14031;50.158;8.626;2022-09-17T04:13:11;5.80;;;1.40;;
16173;SDS011;14031;50.158;8.626;2022-09-17T04:15:38;2.27;;;1.60;;
16173;SDS011;14031;50.158;8.626;2022-09-17T04:18:05;6.60;;;1.50;;
16173;SDS011;14031;50.158;8.626;2022-09-17T04:20:32;2.57;;;1.40;;
16173;SDS011;14031;50.158;8.626;2022-09-17T04:22:59;2.57;;;1.60;;
16173;SDS011;14031;50.158;8.626;2022-09-17T04:25:26;2.43;;;1.53;;
16173;SDS011;14031;50.158;8.626;2022-09-17T04:27:53;2.70;;;1.63;;
16173;SDS011;14031;50.158;8.626;2022-09-17T04:30:21;1.40;;;1.20;;
16173;SDS011;14031;50.158;8.626;2022-09-17T04:32:48;2.00;;;1.10;;
16173;SDS011;14031;50.158;8.626;2022-09-17T04:35:15;2.20;;;1.80;;
16173;SDS011;14031;50.158;8.626;2022-09-17T04:37:42;2.83;;;1.30;;
16173;SDS011;14031;50.158;8.626;2022-09-17T04:40:09;3.20;;;1.73;;
16173;SDS011;14031;50.158;8.626;2022-09-17T04:42:36;7.57;;;1.40;;
16173;SDS011;14031;50.158;8.626;2022-09-17T04:45:03;3.83;;;1.60;;
16173;SDS011;14031;50.158;8.626;2022-09-17T04:47:31;3.87;;;1.60;;
16173;SDS011;14031;50.158;8.626;2022-09-17T04:49:58;3.37;;;1.90;;
16173;SDS011;14031;50.158;8.626;2022-09-17T04:52:25;1.57;;;1.30;;
16173;SDS011;14031;50.158;8.626;2022-09-17T04:54:51;2.67;;;1.57;;
16173;SDS011;14031;50.158;8.626;2022-09-17T04:57:18;3.33;;;1.27;;
16173;SDS011;14031;50.158;8.626;2022-09-17T04:59:45;1.67;;;1.17;;
16173;SDS011;14031;50.158;8.626;2022-09-17T05:02:12;2.70;;;1.30;;
16173;SDS011;14031;50.158;8.626;2022-09-17T05:04:40;2.37;;;1.43;;
16173;SDS011;14031;50.158;8.626;2022-09-17T05:07:06;6.23;;;1.57;;
16173;SDS011;14031;50.158;8.626;2022-09-17T05:09:33;1.63;;;1.10;;
16173;SDS011;14031;50.158;8.626;2022-09-17T05:12:00;1.57;;;1.50;;
16173;SDS011;14031;50.158;8.626;2022-09-17T05:14:27;3.53;;;1.60;;
16173;SDS011;14031;50.158;8.626;2022-09-17T05:16:54;2.37;;;1.50;;
16173;SDS011;14031;50.158;8.626;2022-09-17T05:19:21;7.83;;;1.67;;
16173;SDS011;14031;50.158;8.626;2022-09-17T05:21:49;2.80;;;1.47;;
16173;SDS011;14031;50.158;8.626;2022-09-17T05:24:16;5.20;;;1.43;;
16173;SDS011;14031;50.158;8.626;2022-09-17T05:26:42;3.27;;;1.23;;
16173;SDS011;14031;50.158;8.626;2022-09-17T05:29:09;2.93;;;1.47;;
16173;SDS011;14031;50.158;8.626;2022-09-17T05:31:36;2.40;;;1.33;;
16173;SDS011;14031;50.158;8.626;2022-09-17T05:34:02;1.50;;;1.40;;
16173;SDS011;14031;50.158;8.626;2022-09-17T05:36:29;4.83;;;1.97;;
16173;SDS011;14031;50.158;8.626;2022-09-17T05:38:57;3.97;;;2.30;;
16173;SDS011;14031;50.158;8.626;2022-09-17T05:41:24;1.73;;;1.63;;
16173;SDS011;14031;50.158;8.626;2022-09-17T05:43:51;3.30;;;1.40;;
16173;SDS011;14031;50.158;8.626;2022-09-17T05:46:18;4.30;;;2.03;;
16173;SDS011;14031;50.158;8.626;2022-09-17T05:48:45;2.80;;;1.77;;
16173;SDS011;14031;50.158;8.626;2022-09-17T05:51:11;2.13;;;1.80;;
16173;SDS011;14031;50.158;8.626;2022-09-17T05:53:38;4.67;;;2.07;;
16173;SDS011;14031;50.158;8.626;2022-09-17T05:56:06;4.20;;;2.70;;
16173;SDS011;14031;50.158;8.626;2022-09-17T05:58:33;2.70;;;2.50;;
16173;SDS011;14031;50.158;8.626;2022-09-17T06:01:00;3.93;;;2.50;;
16173;SDS011;14031;50.158;8.626;2022-09-17T06:03:26;5.37;;;3.80;;
16173;SDS011;14031;50.158;8.626;2022-09-17T06:05:54;6.93;;;3.07;;
16173;SDS011;14031;50.158;8.626;2022-09-17T06:08:22;3.50;;;3.03;;
16173;SDS011;14031;50.158;8.626;2022-09-17T06:10:49;11.53;;;3.10;;
16173;SDS011;14031;50.158;8.626;2022-09-17T06:13:18;3.57;;;3.27;;
16173;SDS011;14031;50.158;8.626;2022-09-17T06:15:48;4.00;;;3.47;;
16173;SDS011;14031;50.158;8.626;2022-09-17T06:18:16;4.80;;;3.20;;
16173;SDS011;14031;50.158;8.626;2022-09-17T06:20:43;4.00;;;3.60;;
16173;SDS011;14031;50.158;8.626;2022-09-17T06:23:18;6.20;;;3.60;;
16173;SDS011;14031;50.158;8.626;2022-09-17T06:25:48;13.17;;;4.47;;
16173;SDS011;14031;50.158;8.626;2022-09-17T06:28:18;8.97;;;3.80;;
16173;SDS011;14031;50.158;8.626;2022-09-17T06:30:45;9.47;;;3.60;;
16173;SDS011;14031;50.158;8.626;2022-09-17T06:33:12;8.37;;;3.80;;
16173;SDS011;14031;50.158;8.626;2022-09-17T06:35:39;5.17;;;3.83;;
16173;SDS011;14031;50.158;8.626;2022-09-17T06:38:06;4.47;;;3.47;;
16173;SDS011;14031;50.158;8.626;2022-09-17T06:40:33;4.67;;;3.70;;
16173;SDS011;14031;50.158;8.626;2022-09-17T06:43:00;5.67;;;4.00;;
16173;SDS011;14031;50.158;8.626;2022-09-17T06:45:28;8.50;;;4.20;;
16173;SDS011;14031;50.158;8.626;2022-09-17T06:47:55;6.13;;;3.83;;
16173;SDS011;14031;50.158;8.626;2022-09-17T06:50:22;5.17;;;3.93;;
16173;SDS011;14031;50.158;8.626;2022-09-17T06:52:49;5.73;;;3.47;;
16173;SDS011;14031;50.158;8.626;2022-09-17T06:55:17;4.77;;;3.40;;
16173;SDS011;14031;50.158;8.626;2022-09-17T06:57:45;9.23;;;4.00;;
16173;SDS011;14031;50.158;8.626;2022-09-17T07:00:12;6.40;;;3.70;;
16173;SDS011;14031;50.158;8.626;2022-09-17T07:02:41;6.83;;;4.23;;
16173;SDS011;14031;50.158;8.626;2022-09-17T07:05:08;5.33;;;3.73;;
16173;SDS011;14031;50.158;8.626;2022-09-17T07:07:35;5.00;;;4.00;;
16173;SDS011;14031;50.158;8.626;2022-09-17T07:10:03;7.07;;;4.00;;
16173;SDS011;14031;50.158;8.626;2022-09-17T07:12:30;5.00;;;4.43;;
16173;SDS011;14031;50.158;8.626;2022-09-17T07:14:57;3.40;;;3.10;;
16173;SDS011;14031;50.158;8.626;2022-09-17T07:17:24;7.40;;;3.43;;
16173;SDS011;14031;50.158;8.626;2022-09-17T07:19:55;8.13;;;3.67;;
16173;SDS011;14031;50.158;8.626;2022-09-17T07:22:22;9.17;;;3.60;;
16173;SDS011;14031;50.158;8.626;2022-09-17T07:24:49;8.33;;;3.20;;
16173;SDS011;14031;50.158;8.626;2022-09-17T07:27:16;4.80;;;3.00;;
16173;SDS011;14031;50.158;8.626;2022-09-17T07:29:43;5.20;;;3.10;;
16173;SDS011;14031;50.158;8.626;2022-09-17T07:32:10;5.20;;;2.87;;
16173;SDS011;14031;50.158;8.626;2022-09-17T07:34:36;6.70;;;3.30;;
16173;SDS011;14031;50.158;8.626;2022-09-17T07:37:05;6.60;;;3.77;;
16173;SDS011;14031;50.158;8.626;2022-09-17T07:39:32;6.83;;;3.30;;
16173;SDS011;14031;50.158;8.626;2022-09-17T07:41:59;4.83;;;3.30;;
16173;SDS011;14031;50.158;8.626;2022-09-17T07:44:27;6.43;;;3.10;;
16173;SDS011;14031;50.158;8.626;2022-09-17T07:46:54;11.10;;;3.63;;
16173;SDS011;14031;50.158;8.626;2022-09-17T07:49:21;6.37;;;3.10;;
16173;SDS011;14031;50.158;8.626;2022-09-17T07:51:48;9.77;;;4.07;;
16173;SDS011;14031;50.158;8.626;2022-09-17T07:54:16;4.37;;;2.80;;
16173;SDS011;14031;50.158;8.626;2022-09-17T07:56:43;6.07;;;2.90;;
16173;SDS011;14031;50.158;8.626;2022-09-17T07:59:10;3.83;;;2.83;;
16173;SDS011;14031;50.158;8.626;2022-09-17T08:01:37;2.70;;;2.50;;
16173;SDS011;14031;50.158;8.626;2022-09-17T08:04:03;3.40;;;2.70;;
16173;SDS011;14031;50.158;8.626;2022-09-17T08:06:31;5.60;;;2.40;;
16173;SDS011;14031;50.158;8.626;2022-09-17T08:09:02;6.10;;;2.73;;
16173;SDS011;14031;50.158;8.626;2022-09-17T08:11:30;4.23;;;2.80;;
16173;SDS011;14031;50.158;8.626;2022-09-17T08:13:57;3.73;;;2.63;;
16173;SDS011;14031;50.158;8.626;2022-09-17T08:16:24;9.37;;;3.60;;
16173;SDS011;14031;50.158;8.626;2022-09-17T08:18:53;8.70;;;2.90;;
16173;SDS011;14031;50.158;8.626;2022-09-17T08:21:20;3.40;;;2.60;;
16173;SDS011;14031;50.158;8.626;2022-09-17T08:23:48;3.83;;;2.80;;
16173;SDS011;14031;50.158;8.626;2022-09-17T08:26:15;4.27;;;2.63;;
16173;SDS011;14031;50.158;8.626;2022-09-17T08:28:45;4.83;;;2.57;;
16173;SDS011;14031;50.158;8.626;2022-09-17T08:31:13;4.70;;;2.50;;
16173;SDS011;14031;50.158;8.626;2022-09-17T08:33:41;7.07;;;2.80;;
16173;SDS011;14031;50.158;8.626;2022-09-17T08:36:09;4.53;;;4.00;;
16173;SDS011;14031;50.158;8.626;2022-09-17T08:38:36;4.63;;;2.50;;
16173;SDS011;14031;50.158;8.626;2022-09-17T08:41:07;4.43;;;2.30;;
16173;SDS011;14031;50.158;8.626;2022-09-17T08:43:49;2.93;;;2.20;;
16173;SDS011;14031;50.158;8.626;2022-09-17T08:46:32;2.93;;;2.00;;
16173;SDS011;14031;50.158;8.626;2022-09-17T08:49:04;3.37;;;2.17;;
16173;SDS011;14031;50.158;8.626;2022-09-17T08:51:41;5.50;;;2.30;;
16173;SDS011;14031;50.158;8.626;2022-09-17T08:54:20;2.30;;;2.10;;
16173;SDS011;14031;50.158;8.626;2022-09-17T08:56:56;3.57;;;2.10;;
16173;SDS011;14031;50.158;8.626;2022-09-17T08:59:35;2.27;;;1.90;;
16173;SDS011;14031;50.158;8.626;2022-09-17T09:02:12;3.70;;;1.90;;
16173;SDS011;14031;50.158;8.626;2022-09-17T09:04:56;2.23;;;2.03;;
16173;SDS011;14031;50.158;8.626;2022-09-17T09:07:28;1.83;;;1.73;;
16173;SDS011;14031;50.158;8.626;2022-09-17T09:10:04;2.33;;;2.13;;
16173;SDS011;14031;50.158;8.626;2022-09-17T09:12:37;3.47;;;2.20;;
16173;SDS011;14031;50.158;8.626;2022-09-17T09:15:14;2.73;;;2.20;;
16173;SDS011;14031;50.158;8.626;2022-09-17T09:18:02;4.80;;;2.63;;
16173;SDS011;14031;50.158;8.626;2022-09-17T09:20:39;3.17;;;2.43;;
16173;SDS011;14031;50.158;8.626;2022-09-17T09:23:14;4.03;;;2.17;;
16173;SDS011;14031;50.158;8.626;2022-09-17T09:25:49;7.40;;;2.20;;
16173;SDS011;14031;50.158;8.626;2022-09-17T09:28:26;3.20;;;2.10;;
16173;SDS011;14031;50.158;8.626;2022-09-17T09:31:16;5.03;;;2.00;;
16173;SDS011;14031;50.158;8.626;2022-09-17T09:33:55;1.90;;;1.60;;
16173;SDS011;14031;50.158;8.626;2022-09-17T09:36:24;2.40;;;1.97;;
16173;SDS011;14031;50.158;8.626;2022-09-17T09:38:54;3.50;;;2.00;;
16173;SDS011;14031;50.158;8.626;2022-09-17T09:41:26;5.13;;;2.00;;
16173;SDS011;14031;50.158;8.626;2022-09-17T09:43:59;3.90;;;1.67;;
16173;SDS011;14031;50.158;8.626;2022-09-17T09:46:39;1.60;;;1.50;;
16173;SDS011;14031;50.158;8.626;2022-09-17T09:49:23;4.43;;;2.00;;
16173;SDS011;14031;50.158;8.626;2022-09-17T09:52:04;3.83;;;1.93;;
16173;SDS011;14031;50.158;8.626;2022-09-17T09:54:49;4.03;;;1.57;;
16173;SDS011;14031;50.158;8.626;2022-09-17T09:57:30;2.53;;;1.70;;
16173;SDS011;14031;50.158;8.626;2022-09-17T10:00:17;2.67;;;1.93;;
16173;SDS011;14031;50.158;8.626;2022-09-17T10:02:52;2.57;;;1.70;;
16173;SDS011;14031;50.158;8.626;2022-09-17T10:05:24;4.70;;;2.70;;
16173;SDS011;14031;50.158;8.626;2022-09-17T10:07:51;2.47;;;1.80;;
16173;SDS011;14031;50.158;8.626;2022-09-17T10:10:18;5.33;;;1.90;;
16173;SDS011;14031;50.158;8.626;2022-09-17T10:12:45;5.20;;;1.73;;
16173;SDS011;14031;50.158;8.626;2022-09-17T10:20:54;2.70;;;1.63;;
16173;SDS011;14031;50.158;8.626;2022-09-17T10:23:23;1.60;;;1.50;;
16173;SDS011;14031;50.158;8.626;2022-09-17T10:25:52;4.07;;;1.30;;
16173;SDS011;14031;50.158;8.626;2022-09-17T10:28:34;3.40;;;1.43;;
16173;SDS011;14031;50.158;8.626;2022-09-17T10:31:11;6.33;;;1.47;;
16173;SDS011;14031;50.158;8.626;2022-09-17T10:33:39;2.00;;;1.50;;
16173;SDS011;14031;50.158;8.626;2022-09-17T10:36:34;2.17;;;1.77;;
16173;SDS011;14031;50.158;8.626;2022-09-17T10:42:02;3.23;;;1.83;;
16173;SDS011;14031;50.158;8.626;2022-09-17T10:44:31;5.20;;;2.17;;
16173;SDS011;14031;50.158;8.626;2022-09-17T10:47:03;3.13;;;1.53;;
16173;SDS011;14031;50.158;8.626;2022-09-17T10:49:36;4.67;;;1.67;;
16173;SDS011;14031;50.158;8.626;2022-09-17T10:52:09;4.93;;;1.50;;
16173;SDS011;14031;50.158;8.626;2022-09-17T10:54:43;5.07;;;1.43;;
16173;SDS011;14031;50.158;8.626;2022-09-17T10:57:44;5.30;;;1.93;;
16173;SDS011;14031;50.158;8.626;2022-09-17T11:00:28;5.33;;;1.77;;
16173;SDS011;14031;50.158;8.626;2022-09-17T11:03:27;3.83;;;1.87;;
16173;SDS011;14031;50.158;8.626;2022-09-17T11:06:33;5.90;;;1.37;;
16173;SDS011;14031;50.158;8.626;2022-09-17T11:09:15;3.57;;;1.40;;
16173;SDS011;14031;50.158;8.626;2022-09-17T11:11:54;3.93;;;1.33;;
16173;SDS011;14031;50.158;8.626;2022-09-17T11:14:39;3.20;;;1.10;;
16173;SDS011;14031;50.158;8.626;2022-09-17T11:17:20;5.77;;;1.60;;
16173;SDS011;14031;50.158;8.626;2022-09-17T11:20:01;6.10;;;1.47;;
16173;SDS011;14031;50.158;8.626;2022-09-17T11:22:33;3.00;;;2.23;;
16173;SDS011;14031;50.158;8.626;2022-09-17T11:25:18;2.15;;;1.42;;
16173;SDS011;14031;50.158;8.626;2022-09-17T11:28:02;2.20;;;1.33;;
16173;SDS011;14031;50.158;8.626;2022-09-17T11:30:39;2.50;;;1.30;;
16173;SDS011;14031;50.158;8.626;2022-09-17T11:36:09;3.17;;;1.33;;
16173;SDS011;14031;50.158;8.626;2022-09-17T11:38:40;1.73;;;1.10;;
16173;SDS011;14031;50.158;8.626;2022-09-17T11:41:13;3.65;;;1.08;;
16173;SDS011;14031;50.158;8.626;2022-09-17T11:43:43;3.25;;;1.13;;
16173;SDS011;14031;50.158;8.626;2022-09-17T11:46:15;3.83;;;1.30;;
16173;SDS011;14031;50.158;8.626;2022-09-17T11:48:46;2.53;;;0.93;;
16173;SDS011;14031;50.158;8.626;2022-09-17T11:51:19;2.13;;;1.40;;
16173;SDS011;14031;50.158;8.626;2022-09-17T11:53:51;1.83;;;0.83;;
16173;SDS011;14031;50.158;8.626;2022-09-17T11:56:24;3.37;;;1.10;;
16173;SDS011;14031;50.158;8.626;2022-09-17T11:58:56;1.67;;;0.87;;
16173;SDS011;14031;50.158;8.626;2022-09-17T12:01:30;1.73;;;0.90;;
16173;SDS011;14031;50.158;8.626;2022-09-17T12:04:04;1.83;;;0.80;;
16173;SDS011;14031;50.158;8.626;2022-09-17T12:07:07;3.00;;;0.77;;
16173;SDS011;14031;50.158;8.626;2022-09-17T12:09:42;1.23;;;0.80;;
16173;SDS011;14031;50.158;8.626;2022-09-17T12:12:17;1.20;;;1.07;;
16173;SDS011;14031;50.158;8.626;2022-09-17T12:14:46;1.03;;;0.73;;
16173;SDS011;14031;50.158;8.626;2022-09-17T12:17:19;2.27;;;0.63;;
16173;SDS011;14031;50.158;8.626;2022-09-17T12:19:49;3.00;;;0.73;;
16173;SDS011;14031;50.158;8.626;2022-09-17T12:22:21;2.15;;;0.93;;
16173;SDS011;14031;50.158;8.626;2022-09-17T12:24:51;3.55;;;1.20;;
16173;SDS011;14031;50.158;8.626;2022-09-17T12:27:23;3.40;;;0.55;;
16173;SDS011;14031;50.158;8.626;2022-09-17T12:30:04;1.80;;;0.70;;
16173;SDS011;14031;50.158;8.626;2022-09-17T12:32:42;1.27;;;1.00;;
16173;SDS011;14031;50.158;8.626;2022-09-17T12:35:40;7.45;;;1.00;;
16173;SDS011;14031;50.158;8.626;2022-09-17T12:38:24;1.83;;;1.00;;
16173;SDS011;14031;50.158;8.626;2022-09-17T12:41:02;2.28;;;0.88;;
16173;SDS011;14031;50.158;8.626;2022-09-17T12:43:39;1.00;;;0.80;;
16173;SDS011;14031;50.158;8.626;2022-09-17T12:46:37;2.03;;;0.70;;
16173;SDS011;14031;50.158;8.626;2022-09-17T12:49:26;5.88;;;1.10;;
16173;SDS011;14031;50.158;8.626;2022-09-17T12:52:02;1.50;;;1.00;;
16173;SDS011;14031;50.158;8.626;2022-09-17T12:57:36;1.73;;;0.75;;
16173;SDS011;14031;50.158;8.626;2022-09-17T13:00:12;1.10;;;0.80;;
16173;SDS011;14031;50.158;8.626;2022-09-17T13:02:41;2.00;;;0.77;;
16173;SDS011;14031;50.158;8.626;2022-09-17T13:05:25;2.60;;;0.70;;
16173;SDS011;14031;50.158;8.626;2022-09-17T13:11:29;3.13;;;0.85;;
16173;SDS011;14031;50.158;8.626;2022-09-17T13:14:20;2.88;;;0.80;;
16173;SDS011;14031;50.158;8.626;2022-09-17T13:16:55;1.45;;;0.60;;
16173;SDS011;14031;50.158;8.626;2022-09-17T13:19:29;2.38;;;1.38;;
16173;SDS011;14031;50.158;8.626;2022-09-17T13:22:03;1.25;;;0.90;;
16173;SDS011;14031;50.158;8.626;2022-09-17T13:24:34;3.80;;;0.75;;
16173;SDS011;14031;50.158;8.626;2022-09-17T13:27:02;0.88;;;0.70;;
16173;SDS011;14031;50.158;8.626;2022-09-17T13:38:13;1.23;;;0.80;;
16173;SDS011;14031;50.158;8.626;2022-09-17T13:40:40;1.02;;;0.50;;
16173;SDS011;14031;50.158;8.626;2022-09-17T13:43:07;2.90;;;0.88;;
16173;SDS011;14031;50.158;8.626;2022-09-17T13:48:36;1.20;;;0.60;;
16173;SDS011;14031;50.158;8.626;2022-09-17T13:54:11;2.53;;;0.70;;
16173;SDS011;14031;50.158;8.626;2022-09-17T13:56:40;1.65;;;0.63;;
16173;SDS011;14031;50.158;8.626;2022-09-17T13:59:10;0.75;;;0.45;;
16173;SDS011;14031;50.158;8.626;2022-09-17T14:08:09;3.40;;;0.82;;
16173;SDS011;14031;50.158;8.626;2022-09-17T14:10:56;0.98;;;0.40;;
16173;SDS011;14031;50.158;8.626;2022-09-17T14:13:38;3.17;;;0.47;;
16173;SDS011;14031;50.158;8.626;2022-09-17T14:19:01;1.30;;;0.65;;
16173;SDS011;14031;50.158;8.626;2022-09-17T14:21:32;1.02;;;0.52;;
16173;SDS011;14031;50.158;8.626;2022-09-17T14:24:00;1.00;;;0.80;;
16173;SDS011;14031;50.158;8.626;2022-09-17T14:29:26;9.00;;;1.30;;
16173;SDS011;14031;50.158;8.626;2022-09-17T14:32:05;0.33;;;0.33;;
16173;SDS011;14031;50.158;8.626;2022-09-17T14:34:32;0.20;;;0.20;;
16173;SDS011;14031;50.158;8.626;2022-09-17T14:37:00;0.40;;;0.40;;
16173;SDS011;14031;50.158;8.626;2022-09-17T14:39:28;0.77;;;0.57;;
16173;SDS011;14031;50.158;8.626;2022-09-17T14:42:01;0.70;;;0.50;;
16173;SDS011;14031;50.158;8.626;2022-09-17T14:44:33;1.83;;;0.30;;
16173;SDS011;14031;50.158;8.626;2022-09-17T14:47:01;0.70;;;0.37;;
16173;SDS011;14031;50.158;8.626;2022-09-17T14:49:32;0.38;;;0.38;;
16173;SDS011;14031;50.158;8.626;2022-09-17T14:52:16;0.63;;;0.57;;
16173;SDS011;14031;50.158;8.626;2022-09-17T14:57:51;0.82;;;0.75;;
16173;SDS011;14031;50.158;8.626;2022-09-17T15:00:20;1.42;;;0.60;;
16173;SDS011;14031;50.158;8.626;2022-09-17T15:02:50;0.95;;;0.70;;
16173;SDS011;14031;50.158;8.626;2022-09-17T15:05:26;0.60;;;0.60;;
16173;SDS011;14031;50.158;8.626;2022-09-17T15:08:06;1.38;;;0.60;;
16173;SDS011;14031;50.158;8.626;2022-09-17T15:10:43;1.83;;;0.55;;
16173;SDS011;14031;50.158;8.626;2022-09-17T15:13:14;0.90;;;0.60;;
16173;SDS011;14031;50.158;8.626;2022-09-17T15:18:34;0.88;;;0.47;;
16173;SDS011;14031;50.158;8.626;2022-09-17T15:21:04;1.63;;;0.70;;
16173;SDS011;14031;50.158;8.626;2022-09-17T15:23:41;0.63;;;0.63;;
16173;SDS011;14031;50.158;8.626;2022-09-17T15:26:09;3.67;;;0.65;;
16173;SDS011;14031;50.158;8.626;2022-09-17T15:28:38;0.73;;;0.70;;
16173;SDS011;14031;50.158;8.626;2022-09-17T15:31:11;1.85;;;0.75;;
16173;SDS011;14031;50.158;8.626;2022-09-17T15:33:41;0.73;;;0.63;;
16173;SDS011;14031;50.158;8.626;2022-09-17T15:36:14;1.42;;;1.05;;
16173;SDS011;14031;50.158;8.626;2022-09-17T15:38:46;0.88;;;0.70;;
16173;SDS011;14031;50.158;8.626;2022-09-17T15:41:27;1.48;;;1.00;;
16173;SDS011;14031;50.158;8.626;2022-09-17T15:44:05;1.95;;;1.63;;
16173;SDS011;14031;50.158;8.626;2022-09-17T15:46:39;5.68;;;2.40;;
16173;SDS011;14031;50.158;8.626;2022-09-17T15:51:52;1.30;;;0.73;;
16173;SDS011;14031;50.158;8.626;2022-09-17T15:54:27;3.47;;;0.98;;
16173;SDS011;14031;50.158;8.626;2022-09-17T15:56:56;1.25;;;0.90;;
16173;SDS011;14031;50.158;8.626;2022-09-17T15:59:26;6.45;;;1.83;;
16173;SDS011;14031;50.158;8.626;2022-09-17T16:01:56;15.50;;;5.95;;
16173;SDS011;14031;50.158;8.626;2022-09-17T16:04:27;8.88;;;3.83;;
16173;SDS011;14031;50.158;8.626;2022-09-17T16:06:56;20.60;;;14.35;;
16173;SDS011;14031;50.158;8.626;2022-09-17T16:09:48;3.10;;;1.90;;
16173;SDS011;14031;50.158;8.626;2022-09-17T16:12:18;3.63;;;3.00;;
16173;SDS011;14031;50.158;8.626;2022-09-17T16:14:47;2.17;;;1.95;;